Time;durP1;ratioP1;P1;durP2;ratioP2;P2;SDS_P1;SDS_P2;PMS_P1;PMS_P2;Temp;Humidity;BMP_temperature;BMP_pressure;BME280_temperature;BME280_humidity;BME280_pressure;Samples;Min_cycle;Max_cycle;Signal;HPM_P1;HPM_P2
2022/06/26 00:01:14;;;;;;;1.58;1.42;;;22.90;57.40;;;;;;5082905;28;20625;-64
2022/06/26 00:03:40;;;;;;;1.75;1.52;;;22.90;57.10;;;;;;5076363;28;20123;-63
2022/06/26 00:06:06;;;;;;;1.90;1.80;;;22.90;57.00;;;;;;5078430;28;20039;-63
2022/06/26 00:08:33;;;;;;;1.83;1.67;;;22.90;56.90;;;;;;5099330;28;20123;-64
2022/06/26 00:10:59;;;;;;;1.70;1.60;;;22.90;56.80;;;;;;5103600;28;20040;-64
2022/06/26 00:13:25;;;;;;;1.80;1.60;;;22.90;56.80;;;;;;5083005;28;20024;-64
2022/06/26 00:15:51;;;;;;;1.52;1.30;;;22.90;56.70;;;;;;5099937;28;20035;-62
2022/06/26 00:18:17;;;;;;;1.60;1.50;;;22.90;56.60;;;;;;5104204;28;20032;-63
2022/06/26 00:20:43;;;;;;;1.30;1.20;;;22.90;56.60;;;;;;5102680;28;20049;-64
2022/06/26 00:23:09;;;;;;;3.17;1.65;;;22.90;56.70;;;;;;5091335;28;20036;-64
2022/06/26 00:25:36;;;;;;;1.30;1.20;;;22.90;56.60;;;;;;5090065;28;20028;-64
2022/06/26 00:28:02;;;;;;;1.42;1.33;;;22.90;56.40;;;;;;5084654;28;20732;-64
2022/06/26 00:30:28;;;;;;;1.45;1.13;;;22.90;56.50;;;;;;5093796;28;20078;-64
2022/06/26 00:32:54;;;;;;;1.67;1.08;;;22.90;56.30;;;;;;5075826;28;20024;-65
2022/06/26 00:35:20;;;;;;;1.77;1.40;;;22.90;56.30;;;;;;5082108;28;20024;-64
2022/06/26 00:37:47;;;;;;;1.50;1.40;;;22.90;56.30;;;;;;5084828;28;20020;-64
2022/06/26 00:40:13;;;;;;;1.67;1.58;;;22.80;56.20;;;;;;5076350;28;20858;-65
2022/06/26 00:42:39;;;;;;;1.38;1.27;;;22.90;56.80;;;;;;5085302;28;20056;-65
2022/06/26 00:45:05;;;;;;;1.48;1.20;;;22.80;56.20;;;;;;5087337;28;20035;-65
2022/06/26 00:47:32;;;;;;;1.60;1.50;;;22.80;56.60;;;;;;5077324;28;20081;-65
2022/06/26 00:49:58;;;;;;;2.83;1.40;;;22.80;56.60;;;;;;5084351;28;20040;-66
2022/06/26 00:52:24;;;;;;;1.40;1.30;;;22.80;56.70;;;;;;5074684;28;20469;-65
2022/06/26 00:54:52;;;;;;;1.30;1.20;;;22.80;56.60;;;;;;5073956;28;20061;-65
2022/06/26 00:57:19;;;;;;;1.30;1.20;;;22.70;56.80;;;;;;5070512;28;20071;-64
2022/06/26 00:59:45;;;;;;;1.10;1.00;;;22.70;56.40;;;;;;5069461;28;20111;-64
2022/06/26 01:02:11;;;;;;;1.40;1.30;;;22.70;56.60;;;;;;5064871;28;20033;-64
2022/06/26 01:04:37;;;;;;;1.83;1.33;;;22.70;56.50;;;;;;5075636;28;20035;-64
2022/06/26 01:07:03;;;;;;;1.20;1.10;;;22.70;56.50;;;;;;5072736;28;20032;-62
2022/06/26 01:09:30;;;;;;;1.50;1.40;;;22.70;56.50;;;;;;5073954;28;20104;-65
2022/06/26 01:11:56;;;;;;;1.58;1.30;;;22.70;56.50;;;;;;5069309;28;20048;-63
2022/06/26 01:14:22;;;;;;;1.40;1.30;;;22.60;56.30;;;;;;5071730;28;20033;-64
2022/06/26 01:16:48;;;;;;;1.45;1.35;;;22.60;56.40;;;;;;5076406;28;20119;-63
2022/06/26 01:19:18;;;;;;;1.40;1.30;;;22.60;56.70;;;;;;5058333;28;20020;-64
2022/06/26 01:21:44;;;;;;;1.65;1.55;;;22.60;56.70;;;;;;5081754;28;20478;-58
2022/06/26 01:24:10;;;;;;;1.48;1.38;;;22.60;56.80;;;;;;5081337;28;20040;-65
2022/06/26 01:26:37;;;;;;;1.45;1.35;;;22.60;56.70;;;;;;5081989;28;20025;-64
2022/06/26 01:29:03;;;;;;;1.20;1.10;;;22.50;56.70;;;;;;5083804;28;20075;-65
2022/06/26 01:31:32;;;;;;;1.23;1.13;;;22.50;56.70;;;;;;5081355;28;20024;-66
2022/06/26 01:33:58;;;;;;;2.38;1.30;;;22.50;56.70;;;;;;5079934;28;20032;-63
2022/06/26 01:36:25;;;;;;;1.35;1.20;;;22.50;56.40;;;;;;5082155;28;20052;-64
2022/06/26 01:38:51;;;;;;;1.50;1.40;;;22.50;56.50;;;;;;5082121;28;20678;-61
2022/06/26 01:41:17;;;;;;;1.35;1.25;;;22.40;56.50;;;;;;5082483;28;20028;-57
2022/06/26 01:43:43;;;;;;;1.48;1.38;;;22.40;56.60;;;;;;5084080;28;20102;-61
2022/06/26 01:46:09;;;;;;;1.67;1.30;;;22.40;56.60;;;;;;5079233;28;20421;-62
2022/06/26 01:48:37;;;;;;;1.30;1.20;;;22.40;56.70;;;;;;5080865;28;20397;-62
2022/06/26 01:51:03;;;;;;;1.30;1.20;;;22.40;56.50;;;;;;5081243;28;20040;-62
2022/06/26 01:53:29;;;;;;;2.47;1.15;;;22.30;56.70;;;;;;5081800;28;20404;-52
2022/06/26 01:55:56;;;;;;;1.90;1.33;;;22.30;56.60;;;;;;5078506;28;20055;-65
2022/06/26 01:58:22;;;;;;;1.38;1.27;;;22.30;56.70;;;;;;5065152;28;20024;-68
2022/06/26 02:00:48;;;;;;;1.58;1.02;;;22.30;56.60;;;;;;5084652;28;20042;-68
2022/06/26 02:03:15;;;;;;;2.38;1.35;;;22.30;56.70;;;;;;5062691;28;20044;-59
2022/06/26 02:05:41;;;;;;;1.05;1.00;;;22.20;56.60;;;;;;5082261;28;20032;-65
2022/06/26 02:08:07;;;;;;;1.30;1.20;;;22.20;56.50;;;;;;5082838;28;20055;-69
2022/06/26 02:13:37;;;;;;;0.88;0.88;;;22.20;56.50;;;;;;5082110;28;20067;-66
2022/06/26 02:16:14;;;;;;;1.15;1.05;;;22.20;56.80;;;;;;5082159;28;20051;-62
2022/06/26 02:18:41;;;;;;;1.40;1.30;;;22.20;56.90;;;;;;5081973;28;20099;-59
2022/06/26 02:21:09;;;;;;;2.72;1.30;;;22.10;57.00;;;;;;5081114;28;20033;-58
2022/06/26 02:23:36;;;;;;;1.52;1.30;;;22.20;57.10;;;;;;5080435;28;20028;-59
2022/06/26 02:26:03;;;;;;;1.27;1.17;;;22.10;57.50;;;;;;5082495;28;20093;-59
2022/06/26 02:28:29;;;;;;;;;;;22.10;57.60;;;;;;5081217;28;20101;-53
2022/06/26 02:30:56;;;;;;;1.30;1.20;;;22.10;57.70;;;;;;5076886;28;19955;-49
2022/06/26 02:33:22;;;;;;;2.60;1.35;;;22.00;57.60;;;;;;5065631;28;20040;-51
2022/06/26 02:35:49;;;;;;;1.30;1.20;;;22.10;57.60;;;;;;5065867;28;20050;-50
2022/06/26 02:38:18;;;;;;;0.88;0.85;;;22.00;57.40;;;;;;5082338;28;20043;-49
2022/06/26 02:40:44;;;;;;;3.47;1.40;;;22.00;57.40;;;;;;5082144;28;20134;-51
2022/06/26 02:43:10;;;;;;;1.07;1.07;;;22.00;57.30;;;;;;5081760;28;20123;-51
2022/06/26 02:45:37;;;;;;;1.30;1.20;;;22.00;57.40;;;;;;5081698;28;20036;-49
2022/06/26 02:48:03;;;;;;;1.40;1.30;;;22.00;57.20;;;;;;5081835;28;20376;-49
2022/06/26 02:50:29;;;;;;;1.50;1.33;;;22.00;57.00;;;;;;5072330;28;20017;-48
2022/06/26 02:52:55;;;;;;;1.40;1.30;;;21.90;56.90;;;;;;5061985;28;20055;-50
2022/06/26 02:55:21;;;;;;;1.23;1.10;;;21.90;57.00;;;;;;5061519;28;20021;-48
2022/06/26 02:57:47;;;;;;;1.25;1.15;;;21.90;57.00;;;;;;5080205;28;20028;-48
2022/06/26 03:00:14;;;;;;;1.60;1.30;;;21.90;56.80;;;;;;5088340;28;20024;-52
2022/06/26 03:02:40;;;;;;;1.50;1.40;;;21.90;56.90;;;;;;5065768;28;20032;-53
2022/06/26 03:05:07;;;;;;;1.25;1.15;;;21.90;56.80;;;;;;5085302;28;20756;-53
2022/06/26 03:07:33;;;;;;;1.15;1.05;;;21.80;56.70;;;;;;5090830;28;20036;-52
2022/06/26 03:09:59;;;;;;;1.30;1.20;;;21.80;56.60;;;;;;5084251;28;20663;-54
2022/06/26 03:12:25;;;;;;;1.30;1.20;;;21.80;56.60;;;;;;5079152;28;20025;-49
2022/06/26 03:14:51;;;;;;;1.50;1.40;;;21.80;56.60;;;;;;5084025;28;20036;-50
2022/06/26 03:17:18;;;;;;;1.50;1.40;;;21.80;56.60;;;;;;5084635;28;20029;-50
2022/06/26 03:19:44;;;;;;;;;;;21.80;56.60;;;;;;5085861;28;20025;-47
2022/06/26 03:22:10;;;;;;;1.30;1.20;;;21.70;56.70;;;;;;5076142;28;19905;-49
2022/06/26 03:24:37;;;;;;;1.52;1.35;;;21.70;56.60;;;;;;5103130;28;20053;-49
2022/06/26 03:27:03;;;;;;;1.23;1.13;;;21.70;56.70;;;;;;5090713;28;20084;-54
2022/06/26 03:29:29;;;;;;;1.37;1.27;;;21.60;56.60;;;;;;5083269;28;20047;-48
2022/06/26 03:31:55;;;;;;;1.50;1.40;;;21.70;56.50;;;;;;5078910;28;20119;-51
2022/06/26 03:34:22;;;;;;;1.45;1.35;;;21.60;56.40;;;;;;5064708;28;20025;-51
2022/06/26 03:36:48;;;;;;;1.40;1.30;;;21.60;56.40;;;;;;5069659;28;20020;-52
2022/06/26 03:39:14;;;;;;;1.40;1.30;;;21.60;56.30;;;;;;5081079;28;20742;-48
2022/06/26 03:41:40;;;;;;;1.45;1.35;;;21.60;56.30;;;;;;5103779;28;20035;-50
2022/06/26 03:44:06;;;;;;;1.48;1.38;;;21.60;56.30;;;;;;5089288;28;20020;-49
2022/06/26 03:46:33;;;;;;;1.50;1.40;;;21.60;56.40;;;;;;5081569;28;20059;-52
2022/06/26 03:49:02;;;;;;;1.73;1.20;;;21.60;56.20;;;;;;5079844;28;21012;-54
2022/06/26 03:51:28;;;;;;;1.50;1.40;;;21.60;56.30;;;;;;5074320;28;20047;-51
2022/06/26 03:53:54;;;;;;;1.60;1.50;;;21.50;56.20;;;;;;5073377;28;20032;-49
2022/06/26 03:56:20;;;;;;;1.40;1.30;;;21.50;56.30;;;;;;5075056;28;20025;-52
2022/06/26 03:58:46;;;;;;;1.83;1.40;;;21.50;56.30;;;;;;5074424;28;20021;-53
2022/06/26 04:01:12;;;;;;;1.27;1.17;;;21.50;56.20;;;;;;5073670;28;20025;-50
2022/06/26 04:03:38;;;;;;;1.42;1.33;;;21.50;56.20;;;;;;5073063;28;20032;-48
2022/06/26 04:06:04;;;;;;;1.50;1.40;;;21.40;56.20;;;;;;5074969;28;20017;-47
2022/06/26 04:08:30;;;;;;;1.40;1.30;;;21.40;56.10;;;;;;5072330;28;20075;-49
2022/06/26 04:10:57;;;;;;;1.33;1.23;;;21.40;56.10;;;;;;5071972;28;20552;-51
2022/06/26 04:13:23;;;;;;;2.22;1.35;;;21.40;56.00;;;;;;5076099;28;20037;-49
2022/06/26 04:15:49;;;;;;;1.27;1.20;;;21.40;56.00;;;;;;5073628;28;21431;-52
2022/06/26 04:18:15;;;;;;;1.58;1.48;;;21.40;56.00;;;;;;5075392;28;20056;-49
2022/06/26 04:20:43;;;;;;;1.40;1.30;;;21.30;55.90;;;;;;5074968;28;20162;-52
2022/06/26 04:23:10;;;;;;;1.77;1.20;;;21.30;56.00;;;;;;5072120;28;20116;-49
2022/06/26 04:25:36;;;;;;;;;;;21.30;56.10;;;;;;5080187;28;20016;-54
2022/06/26 04:28:03;;;;;;;1.40;1.30;;;21.30;56.30;;;;;;5081553;28;20360;-50
2022/06/26 04:30:29;;;;;;;1.55;1.45;;;21.20;56.10;;;;;;5070625;28;20025;-50
2022/06/26 04:32:55;;;;;;;1.60;1.30;;;21.20;56.10;;;;;;5074337;28;20055;-51
2022/06/26 04:35:21;;;;;;;1.52;1.42;;;21.20;56.00;;;;;;5077846;28;20021;-50
2022/06/26 04:37:47;;;;;;;3.67;1.40;;;21.20;56.00;;;;;;5081711;28;20339;-53
2022/06/26 04:40:14;;;;;;;1.55;1.45;;;21.20;56.00;;;;;;5082115;28;20025;-54
2022/06/26 04:42:40;;;;;;;1.50;1.40;;;21.10;56.20;;;;;;5072723;28;20448;-55
2022/06/26 04:45:07;;;;;;;2.67;1.25;;;21.10;56.50;;;;;;5078545;28;20072;-48
2022/06/26 04:47:34;;;;;;;1.52;1.42;;;21.10;56.70;;;;;;5080738;28;20040;-52
2022/06/26 04:50:00;;;;;;;1.60;1.50;;;21.10;56.90;;;;;;5078183;28;20037;-51
2022/06/26 04:52:26;;;;;;;1.60;1.50;;;21.10;57.10;;;;;;5079219;28;20060;-50
2022/06/26 04:54:52;;;;;;;1.58;1.48;;;21.10;57.20;;;;;;5080866;28;20087;-47
2022/06/26 04:57:19;;;;;;;2.87;1.40;;;21.10;57.40;;;;;;5080114;28;20029;-50
2022/06/26 04:59:45;;;;;;;1.77;1.50;;;21.00;57.50;;;;;;5078901;28;20037;-47
2022/06/26 05:02:11;;;;;;;1.58;1.48;;;21.10;57.70;;;;;;5078766;28;20405;-46
2022/06/26 05:04:37;;;;;;;1.60;1.50;;;21.10;57.80;;;;;;5081461;28;20044;-49
2022/06/26 05:07:04;;;;;;;1.50;1.40;;;21.10;58.00;;;;;;5079817;28;20036;-47
2022/06/26 05:09:30;;;;;;;1.30;1.17;;;21.10;58.20;;;;;;5075759;28;20046;-45
2022/06/26 05:11:57;;;;;;;1.50;1.40;;;21.10;58.30;;;;;;5074851;28;20353;-48
2022/06/26 05:14:23;;;;;;;2.22;1.80;;;21.10;58.40;;;;;;5078795;28;20024;-48
2022/06/26 05:16:49;;;;;;;1.70;1.60;;;21.10;58.50;;;;;;5074758;28;20032;-50
2022/06/26 05:19:15;;;;;;;1.80;1.70;;;21.10;58.50;;;;;;5073338;28;20508;-45
2022/06/26 05:21:42;;;;;;;1.60;1.50;;;21.10;58.60;;;;;;5063015;28;20027;-46
2022/06/26 05:24:08;;;;;;;1.27;1.17;;;21.10;58.60;;;;;;5062439;28;20024;-46
2022/06/26 05:26:34;;;;;;;1.80;1.65;;;21.20;58.70;;;;;;5062079;28;20170;-47
2022/06/26 05:29:00;;;;;;;1.50;1.40;;;21.20;58.70;;;;;;5067415;28;20048;-48
2022/06/26 05:31:26;;;;;;;1.70;1.60;;;21.20;58.70;;;;;;5068865;28;20083;-45
2022/06/26 05:33:53;;;;;;;1.50;1.40;;;21.20;58.70;;;;;;5061997;28;20033;-45
2022/06/26 05:36:19;;;;;;;1.50;1.40;;;21.20;58.70;;;;;;5065509;28;20025;-48
2022/06/26 05:38:45;;;;;;;1.40;1.30;;;21.20;58.80;;;;;;5072788;28;20024;-45
2022/06/26 05:41:11;;;;;;;1.30;1.20;;;21.20;59.30;;;;;;5069398;28;20056;-45
2022/06/26 05:43:37;;;;;;;1.63;1.52;;;21.20;58.80;;;;;;5072150;28;20060;-46
2022/06/26 05:46:03;;;;;;;1.50;1.40;;;21.30;58.90;;;;;;5073169;28;20051;-46
2022/06/26 05:48:30;;;;;;;1.48;1.38;;;21.30;58.80;;;;;;5071882;28;20032;-45
2022/06/26 05:50:56;;;;;;;5.00;1.60;;;21.30;58.90;;;;;;5062426;28;20024;-42
2022/06/26 05:53:22;;;;;;;3.38;1.40;;;21.30;59.00;;;;;;5062174;28;20036;-42
2022/06/26 05:55:48;;;;;;;0.97;0.97;;;21.30;58.90;;;;;;5067237;28;20088;-44
2022/06/26 05:58:15;;;;;;;1.52;1.40;;;21.30;59.00;;;;;;5081657;28;20262;-42
2022/06/26 06:00:41;;;;;;;3.42;1.40;;;21.40;59.10;;;;;;5073253;28;20565;-44
2022/06/26 06:03:07;;;;;;;1.40;1.30;;;21.40;59.10;;;;;;5079494;28;20032;-44
2022/06/26 06:05:33;;;;;;;1.30;1.20;;;21.40;59.10;;;;;;5082460;28;20111;-42
2022/06/26 06:08:00;;;;;;;1.27;1.17;;;21.40;59.10;;;;;;5079151;28;20040;-43
2022/06/26 06:10:26;;;;;;;1.80;1.33;;;21.40;59.10;;;;;;5061208;28;20473;-43
2022/06/26 06:12:52;;;;;;;2.65;1.60;;;21.40;59.10;;;;;;5067772;28;20028;-43
2022/06/26 06:15:19;;;;;;;1.50;1.40;;;21.40;59.10;;;;;;5080656;28;20033;-42
2022/06/26 06:17:45;;;;;;;1.60;1.50;;;21.40;59.10;;;;;;5073831;28;20029;-42
2022/06/26 06:20:13;;;;;;;1.50;1.40;;;21.50;59.20;;;;;;5081796;28;20162;-42
2022/06/26 06:22:44;;;;;;;1.35;1.25;;;21.50;59.30;;;;;;5068494;28;20029;-41
2022/06/26 06:25:10;;;;;;;1.63;1.52;;;21.50;59.40;;;;;;5080082;28;20040;-40
2022/06/26 06:27:37;;;;;;;1.33;1.23;;;21.50;59.50;;;;;;5078888;28;20052;-41
2022/06/26 06:30:07;;;;;;;1.97;1.53;;;21.50;59.40;;;;;;5079999;28;20079;-41
2022/06/26 06:32:33;;;;;;;1.35;1.25;;;21.60;59.50;;;;;;5081167;28;20975;-41
2022/06/26 06:34:59;;;;;;;1.58;1.48;;;21.60;59.40;;;;;;5077660;28;20059;-42
2022/06/26 06:37:25;;;;;;;1.38;1.27;;;21.60;59.40;;;;;;5085232;28;20021;-43
2022/06/26 06:39:51;;;;;;;1.60;1.50;;;21.60;59.40;;;;;;5070241;28;20039;-42
2022/06/26 06:42:18;;;;;;;1.48;1.38;;;21.60;59.30;;;;;;5082114;28;20048;-40
2022/06/26 06:44:44;;;;;;;1.40;1.30;;;21.60;59.30;;;;;;5083847;28;20045;-41
2022/06/26 06:47:12;;;;;;;1.45;1.35;;;21.60;59.20;;;;;;5085902;28;20052;-41
2022/06/26 06:49:38;;;;;;;1.40;1.30;;;21.60;59.20;;;;;;5082838;28;20109;-42
2022/06/26 06:52:05;;;;;;;1.43;1.33;;;21.60;59.20;;;;;;5085166;28;20059;-41
2022/06/26 06:54:32;;;;;;;1.60;1.50;;;21.60;59.20;;;;;;5082287;28;20036;-43
2022/06/26 06:56:58;;;;;;;1.50;1.40;;;21.60;59.10;;;;;;5084468;28;20040;-42
2022/06/26 06:59:24;;;;;;;1.33;1.23;;;21.60;59.10;;;;;;5083314;28;20841;-42
2022/06/26 07:01:50;;;;;;;1.50;1.40;;;21.70;59.70;;;;;;5077785;28;20120;-40
2022/06/26 07:04:17;;;;;;;1.35;1.25;;;21.70;59.20;;;;;;5073919;28;20024;-42
2022/06/26 07:06:43;;;;;;;1.67;1.58;;;21.70;59.20;;;;;;5086034;28;20062;-41
2022/06/26 07:09:09;;;;;;;1.40;1.30;;;21.70;59.20;;;;;;5081623;28;20055;-41
2022/06/26 07:11:35;;;;;;;1.13;1.13;;;21.70;59.20;;;;;;5083799;28;21763;-41
2022/06/26 07:14:01;;;;;;;1.30;1.20;;;21.70;59.20;;;;;;5082485;28;20028;-41
2022/06/26 07:16:28;;;;;;;1.42;1.33;;;21.70;59.20;;;;;;5074771;28;20024;-41
2022/06/26 07:18:54;;;;;;;1.48;1.38;;;21.70;59.10;;;;;;5090860;28;20033;-41
2022/06/26 07:21:20;;;;;;;1.52;1.42;;;21.70;59.10;;;;;;5077109;28;20052;-40
2022/06/26 07:23:46;;;;;;;1.88;1.40;;;21.80;59.10;;;;;;5086531;28;20033;-41
2022/06/26 07:26:12;;;;;;;1.30;1.20;;;21.80;59.80;;;;;;5079474;28;20017;-41
2022/06/26 07:28:38;;;;;;;2.28;1.30;;;21.80;59.30;;;;;;5086927;28;20044;-45
2022/06/26 07:31:04;;;;;;;1.40;1.30;;;21.80;59.30;;;;;;5080742;28;20123;-48
2022/06/26 07:36:15;;;;;;;1.60;1.30;;;21.90;59.50;;;;;;5080089;28;20044;-47
2022/06/26 07:38:41;;;;;;;1.60;1.42;;;21.90;59.50;;;;;;5081270;28;20035;-47
2022/06/26 07:41:08;;;;;;;1.50;1.27;;;21.90;59.60;;;;;;5083904;28;20029;-44
2022/06/26 07:43:34;;;;;;;2.33;1.10;;;21.90;59.60;;;;;;5083774;28;20045;-45
2022/06/26 07:46:00;;;;;;;2.03;1.20;;;21.90;59.70;;;;;;5087911;28;20032;-45
2022/06/26 07:48:26;;;;;;;4.05;1.60;;;21.90;59.80;;;;;;5081728;28;20048;-43
2022/06/26 07:50:53;;;;;;;4.13;1.50;;;21.90;59.90;;;;;;5085543;28;20020;-44
2022/06/26 07:53:20;;;;;;;5.43;1.60;;;22.00;60.00;;;;;;5096215;28;20370;-44
2022/06/26 07:55:46;;;;;;;;;;;22.00;60.00;;;;;;5083218;28;20040;-43
2022/06/26 07:58:12;;;;;;;1.83;1.30;;;22.00;60.00;;;;;;5085577;28;19904;-44
2022/06/26 08:00:38;;;;;;;1.60;1.30;;;22.00;59.90;;;;;;5085806;28;20144;-43
2022/06/26 08:03:05;;;;;;;1.63;1.45;;;22.00;59.90;;;;;;5088398;28;20081;-46
2022/06/26 08:05:31;;;;;;;1.60;1.50;;;22.10;59.90;;;;;;5086787;28;20023;-43
2022/06/26 08:07:57;;;;;;;2.53;1.60;;;22.10;60.00;;;;;;5077766;28;20071;-44
2022/06/26 08:10:23;;;;;;;3.92;1.50;;;22.10;60.00;;;;;;5086169;28;20031;-44
2022/06/26 08:12:49;;;;;;;2.72;1.60;;;22.10;60.00;;;;;;5077634;28;20039;-44
2022/06/26 08:15:15;;;;;;;1.60;1.50;;;22.10;60.00;;;;;;5084932;28;20025;-45
2022/06/26 08:17:42;;;;;;;1.80;1.70;;;22.10;60.00;;;;;;5080382;28;20782;-45
2022/06/26 08:20:08;;;;;;;2.22;1.50;;;22.10;60.00;;;;;;5082320;28;20032;-42
2022/06/26 08:22:34;;;;;;;2.58;1.38;;;22.10;60.00;;;;;;5075293;28;20032;-49
2022/06/26 08:25:01;;;;;;;4.22;1.60;;;22.20;60.10;;;;;;5078929;28;20039;-45
2022/06/26 08:27:27;;;;;;;1.85;1.60;;;22.10;60.10;;;;;;5088401;28;20052;-44
2022/06/26 08:29:53;;;;;;;1.50;1.40;;;22.20;60.30;;;;;;5088078;28;20054;-45
2022/06/26 08:32:19;;;;;;;2.20;1.60;;;22.20;60.30;;;;;;5082839;28;20053;-44
2022/06/26 08:34:45;;;;;;;1.90;1.60;;;22.20;60.50;;;;;;5083517;28;20032;-44
2022/06/26 08:37:11;;;;;;;1.42;1.33;;;22.20;60.50;;;;;;5079388;28;20024;-44
2022/06/26 08:39:38;;;;;;;3.25;1.60;;;22.20;60.60;;;;;;5084922;28;20496;-44
2022/06/26 08:42:04;;;;;;;1.70;1.58;;;22.20;60.60;;;;;;5081601;28;20052;-44
2022/06/26 08:44:32;;;;;;;2.40;1.50;;;22.20;60.60;;;;;;5083831;28;20028;-45
2022/06/26 08:46:57;;;;;;;;;;;22.20;60.60;;;;;;5083563;28;20029;-45
2022/06/26 08:49:24;;;;;;;1.95;1.55;;;22.20;60.50;;;;;;5076661;28;19920;-46
2022/06/26 08:51:50;;;;;;;1.80;1.70;;;22.30;60.70;;;;;;5080716;28;20028;-45
2022/06/26 08:54:17;;;;;;;2.17;1.52;;;22.30;60.70;;;;;;5082887;28;20090;-44
2022/06/26 08:56:44;;;;;;;2.58;1.50;;;22.30;60.70;;;;;;5082172;28;20036;-44
2022/06/26 08:59:16;;;;;;;1.92;1.73;;;22.30;60.40;;;;;;5082164;28;20496;-46
2022/06/26 09:01:42;;;;;;;1.60;1.40;;;22.30;60.10;;;;;;5084825;28;20020;-45
2022/06/26 09:04:08;;;;;;;1.88;1.67;;;22.30;59.90;;;;;;5087331;28;20024;-48
2022/06/26 09:06:35;;;;;;;2.10;1.88;;;22.30;60.00;;;;;;5080759;28;20029;-43
2022/06/26 09:09:11;;;;;;;1.85;1.75;;;22.30;60.00;;;;;;5066378;28;20037;-45
2022/06/26 09:11:38;;;;;;;2.00;1.80;;;22.30;59.90;;;;;;5080191;28;20028;-42
2022/06/26 09:14:04;;;;;;;1.65;1.52;;;22.30;59.90;;;;;;5081069;28;20021;-44
2022/06/26 09:16:33;;;;;;;1.73;1.63;;;22.30;59.90;;;;;;5082624;28;20028;-47
2022/06/26 09:19:09;;;;;;;1.90;1.70;;;22.30;59.90;;;;;;5082791;28;20028;-45
2022/06/26 09:21:35;;;;;;;2.67;1.60;;;22.30;60.00;;;;;;5080556;28;20033;-43
2022/06/26 09:24:01;;;;;;;1.70;1.60;;;22.30;60.00;;;;;;5081775;28;20028;-44
2022/06/26 09:26:28;;;;;;;1.80;1.70;;;22.40;60.20;;;;;;5078830;28;20055;-43
2022/06/26 09:28:54;;;;;;;3.10;1.67;;;22.40;60.30;;;;;;5079322;28;20040;-42
2022/06/26 09:31:21;;;;;;;1.60;1.45;;;22.40;60.40;;;;;;5077778;28;20518;-41
2022/06/26 09:33:47;;;;;;;;;;;22.40;60.60;;;;;;5079852;28;20036;-45
2022/06/26 09:36:17;;;;;;;1.70;1.60;;;22.40;60.50;;;;;;5079823;28;20372;-42
2022/06/26 09:38:50;;;;;;;3.40;1.88;;;22.40;60.70;;;;;;5080577;28;20028;-40
2022/06/26 09:41:17;;;;;;;2.20;1.92;;;22.40;60.80;;;;;;5080808;28;20661;-43
2022/06/26 09:43:43;;;;;;;1.60;1.30;;;22.40;60.90;;;;;;5079249;28;20163;-43
2022/06/26 09:46:11;;;;;;;2.72;1.58;;;22.40;61.00;;;;;;5082188;28;20033;-44
2022/06/26 09:48:37;;;;;;;2.47;1.65;;;22.40;61.10;;;;;;5081762;28;20044;-45
2022/06/26 09:51:05;;;;;;;1.43;1.33;;;22.40;61.00;;;;;;5080385;28;20028;-46
2022/06/26 09:53:31;;;;;;;1.73;1.63;;;22.40;61.00;;;;;;5080161;28;20385;-43
2022/06/26 09:55:58;;;;;;;1.77;1.67;;;22.40;61.00;;;;;;5081133;28;20476;-45
2022/06/26 09:58:25;;;;;;;1.80;1.70;;;22.40;61.10;;;;;;5081331;28;20029;-42
2022/06/26 10:06:28;;;;;;;2.03;1.60;;;22.50;61.40;;;;;;5079228;28;20059;-43
2022/06/26 10:08:56;;;;;;;1.60;1.50;;;22.50;61.40;;;;;;5072571;28;20048;-43
2022/06/26 10:11:27;;;;;;;1.95;1.60;;;22.50;61.40;;;;;;5075485;28;20029;-42
2022/06/26 10:13:58;;;;;;;1.73;1.63;;;22.50;61.50;;;;;;5074076;28;20056;-43
2022/06/26 10:16:36;;;;;;;1.60;1.50;;;22.50;61.50;;;;;;5076186;28;20522;-46
2022/06/26 10:19:20;;;;;;;1.50;1.40;;;22.50;61.40;;;;;;5071368;28;20032;-43
2022/06/26 10:21:47;;;;;;;2.15;1.60;;;22.50;61.40;;;;;;5075215;28;20119;-46
2022/06/26 10:24:13;;;;;;;1.70;1.60;;;22.50;61.30;;;;;;5055574;28;20032;-44
2022/06/26 10:26:39;;;;;;;1.90;1.77;;;22.50;61.30;;;;;;5072648;28;20572;-44
2022/06/26 10:29:09;;;;;;;1.95;1.73;;;22.50;61.30;;;;;;5071403;28;20071;-43
2022/06/26 10:31:49;;;;;;;1.75;1.48;;;22.50;61.40;;;;;;5069674;28;20094;-43
2022/06/26 10:34:19;;;;;;;1.63;1.52;;;22.50;61.40;;;;;;5075163;28;20033;-43
2022/06/26 10:37:04;;;;;;;1.80;1.70;;;22.50;61.40;;;;;;5079065;28;20043;-43
2022/06/26 10:39:46;;;;;;;1.95;1.70;;;22.60;61.50;;;;;;5080519;28;20029;-43
2022/06/26 10:45:20;;;;;;;1.80;1.70;;;22.60;61.40;;;;;;5082376;28;20044;-44
2022/06/26 10:47:50;;;;;;;1.55;1.45;;;22.60;61.40;;;;;;5079411;28;20020;-42
2022/06/26 10:50:35;;;;;;;2.15;1.70;;;22.60;61.40;;;;;;5071399;28;20017;-42
2022/06/26 10:53:19;;;;;;;1.60;1.50;;;22.60;61.40;;;;;;5083756;28;20039;-42
2022/06/26 10:55:48;;;;;;;1.70;1.60;;;22.60;61.40;;;;;;5073379;28;20492;-42
2022/06/26 10:58:21;;;;;;;1.88;1.77;;;22.60;61.30;;;;;;5075127;28;20032;-42
2022/06/26 11:00:47;;;;;;;2.33;1.60;;;22.60;61.40;;;;;;5071400;28;20020;-41
2022/06/26 11:03:15;;;;;;;1.83;1.73;;;22.60;61.40;;;;;;5072952;28;20060;-42
2022/06/26 11:06:07;;;;;;;2.45;1.70;;;22.60;61.40;;;;;;5071469;28;20067;-42
2022/06/26 11:08:34;;;;;;;1.52;1.42;;;22.60;61.40;;;;;;5072416;28;20393;-42
2022/06/26 11:11:01;;;;;;;1.65;1.55;;;22.60;61.40;;;;;;5075263;28;20032;-42
2022/06/26 11:13:27;;;;;;;1.80;1.58;;;22.60;61.40;;;;;;5072662;28;20504;-42
2022/06/26 11:15:53;;;;;;;1.98;1.77;;;22.60;61.40;;;;;;5074312;28;20074;-42
2022/06/26 11:18:19;;;;;;;1.65;1.55;;;22.60;61.40;;;;;;5069900;28;20025;-43
2022/06/26 11:20:50;;;;;;;1.73;1.63;;;22.60;61.40;;;;;;5071889;28;20052;-42
2022/06/26 11:23:27;;;;;;;1.70;1.60;;;22.70;61.60;;;;;;5071350;28;20029;-43
2022/06/26 11:25:54;;;;;;;1.80;1.70;;;22.70;61.50;;;;;;5070465;28;20033;-43
2022/06/26 11:28:20;;;;;;;;;;;22.70;61.60;;;;;;5090916;28;20043;-42
2022/06/26 11:30:47;;;;;;;1.77;1.40;;;22.70;61.50;;;;;;5084275;28;19915;-44
2022/06/26 11:33:13;;;;;;;1.60;1.50;;;22.70;61.60;;;;;;5079552;28;20111;-42
2022/06/26 11:35:40;;;;;;;1.70;1.60;;;22.70;61.60;;;;;;5074575;28;20040;-42
2022/06/26 11:38:24;;;;;;;1.95;1.50;;;22.70;61.60;;;;;;5074730;28;20032;-43
2022/06/26 11:40:50;;;;;;;1.77;1.63;;;22.70;61.80;;;;;;5082962;28;20033;-49
2022/06/26 11:43:16;;;;;;;1.90;1.40;;;22.70;61.80;;;;;;5075675;28;20041;-42
2022/06/26 11:45:43;;;;;;;1.75;1.65;;;22.70;61.80;;;;;;5080030;28;20032;-43
2022/06/26 11:48:16;;;;;;;1.73;1.50;;;22.70;61.80;;;;;;5086924;28;20742;-43
2022/06/26 11:50:46;;;;;;;1.60;1.50;;;22.70;61.80;;;;;;5082654;28;20028;-43
2022/06/26 11:53:20;;;;;;;1.63;1.50;;;22.70;61.80;;;;;;5080568;28;20029;-42
2022/06/26 11:55:49;;;;;;;1.95;1.85;;;22.70;61.80;;;;;;5080654;28;20050;-45
2022/06/26 11:58:16;;;;;;;1.70;1.60;;;22.70;61.80;;;;;;5093438;28;20047;-42
2022/06/26 12:00:46;;;;;;;1.63;1.50;;;22.70;61.90;;;;;;5092006;28;20036;-43
2022/06/26 12:03:15;;;;;;;1.60;1.50;;;22.70;61.90;;;;;;5079254;28;20028;-43
2022/06/26 12:05:43;;;;;;;1.60;1.50;;;22.70;61.90;;;;;;5082215;28;20054;-43
2022/06/26 12:08:18;;;;;;;1.48;1.38;;;22.70;61.90;;;;;;5094870;28;20035;-41
2022/06/26 12:10:54;;;;;;;1.50;1.40;;;22.70;62.00;;;;;;5070101;28;20040;-43
2022/06/26 12:13:24;;;;;;;1.70;1.60;;;22.80;62.10;;;;;;5082154;28;20116;-41
2022/06/26 12:15:51;;;;;;;1.40;1.30;;;22.80;62.00;;;;;;5080862;28;20029;-41
2022/06/26 12:18:17;;;;;;;1.40;1.30;;;22.80;62.00;;;;;;5074669;28;20016;-41
2022/06/26 12:20:43;;;;;;;1.30;1.20;;;22.80;62.10;;;;;;5084120;28;20025;-43
2022/06/26 12:23:10;;;;;;;1.40;1.30;;;22.80;62.10;;;;;;5090535;28;20495;-41
2022/06/26 12:25:42;;;;;;;1.17;1.07;;;22.80;62.20;;;;;;5081301;28;20071;-41
2022/06/26 12:28:08;;;;;;;1.95;1.42;;;22.80;62.90;;;;;;5083434;28;20323;-42
2022/06/26 12:30:35;;;;;;;1.50;1.38;;;22.80;62.10;;;;;;5081317;28;21683;-42
2022/06/26 12:33:04;;;;;;;1.50;1.40;;;22.80;62.20;;;;;;5080328;28;20043;-44
2022/06/26 12:35:31;;;;;;;1.52;1.42;;;22.80;62.20;;;;;;5087513;28;20089;-43
2022/06/26 12:37:59;;;;;;;1.60;1.50;;;22.80;62.30;;;;;;5073397;28;20033;-44
2022/06/26 12:40:25;;;;;;;1.58;1.48;;;22.80;62.30;;;;;;5070760;28;20041;-41
2022/06/26 12:42:51;;;;;;;1.30;1.20;;;22.80;62.40;;;;;;5071104;28;20060;-42
2022/06/26 12:45:17;;;;;;;1.45;1.35;;;22.80;62.40;;;;;;5070966;28;20136;-42
2022/06/26 12:47:44;;;;;;;1.42;1.23;;;22.80;62.50;;;;;;5071664;28;20394;-41
2022/06/26 12:50:11;;;;;;;1.35;1.25;;;22.80;62.60;;;;;;5070777;28;20041;-41
2022/06/26 12:52:37;;;;;;;1.50;1.30;;;22.80;62.50;;;;;;5070086;28;20532;-41
2022/06/26 12:55:07;;;;;;;1.30;1.20;;;22.80;62.60;;;;;;5069831;28;20069;-41
2022/06/26 12:57:33;;;;;;;1.50;1.40;;;22.90;62.70;;;;;;5070051;28;20039;-42
2022/06/26 12:59:59;;;;;;;1.48;1.38;;;22.90;62.70;;;;;;5069332;28;20047;-43
2022/06/26 13:02:26;;;;;;;3.13;1.50;;;22.90;62.80;;;;;;5067788;28;20509;-43